sensor_id;sensor_type;location;lat;lon;timestamp;temperature;humidity
17687;DHT22;8962;52.538;13.266;2022-10-10T00:01:31;9.40;99.90
17687;DHT22;8962;52.538;13.266;2022-10-10T00:04:00;9.50;99.90
17687;DHT22;8962;52.538;13.266;2022-10-10T00:06:29;9.50;99.90
17687;DHT22;8962;52.538;13.266;2022-10-10T00:08:56;9.40;99.90
17687;DHT22;8962;52.538;13.266;2022-10-10T00:11:23;9.40;99.90
17687;DHT22;8962;52.538;13.266;2022-10-10T00:13:51;9.40;99.90
17687;DHT22;8962;52.538;13.266;2022-10-10T00:16:20;9.40;99.90
17687;DHT22;8962;52.538;13.266;2022-10-10T00:18:47;9.40;99.90
17687;DHT22;8962;52.538;13.266;2022-10-10T00:21:15;9.30;99.90
17687;DHT22;8962;52.538;13.266;2022-10-10T00:23:41;9.30;99.90
17687;DHT22;8962;52.538;13.266;2022-10-10T00:26:09;9.30;99.90
17687;DHT22;8962;52.538;13.266;2022-10-10T00:28:36;9.30;99.90
17687;DHT22;8962;52.538;13.266;2022-10-10T00:31:04;9.20;99.90
17687;DHT22;8962;52.538;13.266;2022-10-10T00:33:33;9.20;99.90
17687;DHT22;8962;52.538;13.266;2022-10-10T00:36:00;9.20;99.90
17687;DHT22;8962;52.538;13.266;2022-10-10T00:38:28;9.20;99.90
17687;DHT22;8962;52.538;13.266;2022-10-10T00:40:56;9.10;99.90
17687;DHT22;8962;52.538;13.266;2022-10-10T00:43:25;9.10;99.90
17687;DHT22;8962;52.538;13.266;2022-10-10T00:45:52;9.20;99.90
17687;DHT22;8962;52.538;13.266;2022-10-10T00:48:21;9.10;99.90
17687;DHT22;8962;52.538;13.266;2022-10-10T00:50:54;9.10;99.90
17687;DHT22;8962;52.538;13.266;2022-10-10T00:53:25;9.20;99.90
17687;DHT22;8962;52.538;13.266;2022-10-10T00:55:53;9.10;99.90
17687;DHT22;8962;52.538;13.266;2022-10-10T00:58:21;9.10;99.90
17687;DHT22;8962;52.538;13.266;2022-10-10T01:00:49;9.10;99.90
17687;DHT22;8962;52.538;13.266;2022-10-10T01:03:16;9.10;99.90
17687;DHT22;8962;52.538;13.266;2022-10-10T01:05:45;9.10;99.90
17687;DHT22;8962;52.538;13.266;2022-10-10T01:08:15;9.10;99.90
17687;DHT22;8962;52.538;13.266;2022-10-10T01:10:57;9.10;99.90
17687;DHT22;8962;52.538;13.266;2022-10-10T01:13:31;9.00;99.90
17687;DHT22;8962;52.538;13.266;2022-10-10T01:16:05;9.00;99.90
17687;DHT22;8962;52.538;13.266;2022-10-10T01:18:40;9.00;99.90
17687;DHT22;8962;52.538;13.266;2022-10-10T01:21:22;9.00;99.90
17687;DHT22;8962;52.538;13.266;2022-10-10T01:24:10;9.00;99.90
17687;DHT22;8962;52.538;13.266;2022-10-10T01:27:09;9.00;99.90
17687;DHT22;8962;52.538;13.266;2022-10-10T01:29:41;9.00;99.90
17687;DHT22;8962;52.538;13.266;2022-10-10T01:32:13;9.00;99.90
17687;DHT22;8962;52.538;13.266;2022-10-10T01:34:54;8.90;99.90
17687;DHT22;8962;52.538;13.266;2022-10-10T01:37:27;8.90;99.90
17687;DHT22;8962;52.538;13.266;2022-10-10T01:39:58;8.90;99.90
17687;DHT22;8962;52.538;13.266;2022-10-10T01:42:29;8.90;99.90
17687;DHT22;8962;52.538;13.266;2022-10-10T01:44:59;8.90;99.90
17687;DHT22;8962;52.538;13.266;2022-10-10T01:47:26;8.90;99.90
17687;DHT22;8962;52.538;13.266;2022-10-10T01:49:57;8.80;99.90
17687;DHT22;8962;52.538;13.266;2022-10-10T01:52:34;8.80;99.90
17687;DHT22;8962;52.538;13.266;2022-10-10T01:55:26;8.90;99.90
17687;DHT22;8962;52.538;13.266;2022-10-10T01:58:07;8.90;99.90
17687;DHT22;8962;52.538;13.266;2022-10-10T02:00:44;8.80;99.90
17687;DHT22;8962;52.538;13.266;2022-10-10T02:03:17;8.80;99.90
17687;DHT22;8962;52.538;13.266;2022-10-10T02:05:48;8.80;99.90
17687;DHT22;8962;52.538;13.266;2022-10-10T02:08:20;8.80;99.90
17687;DHT22;8962;52.538;13.266;2022-10-10T02:10:54;8.90;99.90
17687;DHT22;8962;52.538;13.266;2022-10-10T02:13:28;8.80;99.90
17687;DHT22;8962;52.538;13.266;2022-10-10T02:16:00;8.80;99.90
17687;DHT22;8962;52.538;13.266;2022-10-10T02:18:30;8.80;99.90
17687;DHT22;8962;52.538;13.266;2022-10-10T02:21:00;8.80;99.90
17687;DHT22;8962;52.538;13.266;2022-10-10T02:23:29;8.70;99.90
17687;DHT22;8962;52.538;13.266;2022-10-10T02:25:57;8.70;99.90
17687;DHT22;8962;52.538;13.266;2022-10-10T02:28:30;8.70;99.90
17687;DHT22;8962;52.538;13.266;2022-10-10T02:31:03;8.70;99.90
17687;DHT22;8962;52.538;13.266;2022-10-10T02:33:37;8.70;99.90
17687;DHT22;8962;52.538;13.266;2022-10-10T02:36:07;8.70;99.90
17687;DHT22;8962;52.538;13.266;2022-10-10T02:38:35;8.70;99.90
17687;DHT22;8962;52.538;13.266;2022-10-10T02:41:05;8.70;99.90
17687;DHT22;8962;52.538;13.266;2022-10-10T02:43:33;8.60;99.90
17687;DHT22;8962;52.538;13.266;2022-10-10T02:46:05;8.60;99.90
17687;DHT22;8962;52.538;13.266;2022-10-10T02:48:35;8.60;99.90
17687;DHT22;8962;52.538;13.266;2022-10-10T02:51:02;8.50;99.90
17687;DHT22;8962;52.538;13.266;2022-10-10T02:53:29;8.50;99.90
17687;DHT22;8962;52.538;13.266;2022-10-10T02:55:56;8.50;99.90
17687;DHT22;8962;52.538;13.266;2022-10-10T02:58:24;8.50;99.90
17687;DHT22;8962;52.538;13.266;2022-10-10T03:00:50;8.40;99.90
17687;DHT22;8962;52.538;13.266;2022-10-10T03:03:19;8.40;99.90
17687;DHT22;8962;52.538;13.266;2022-10-10T03:05:48;8.40;99.90
17687;DHT22;8962;52.538;13.266;2022-10-10T03:08:15;8.40;99.90
17687;DHT22;8962;52.538;13.266;2022-10-10T03:10:53;8.30;99.90
17687;DHT22;8962;52.538;13.266;2022-10-10T03:13:20;8.30;99.90
17687;DHT22;8962;52.538;13.266;2022-10-10T03:15:47;8.30;99.90
17687;DHT22;8962;52.538;13.266;2022-10-10T03:18:14;8.20;99.90
17687;DHT22;8962;52.538;13.266;2022-10-10T03:20:43;8.10;99.90
17687;DHT22;8962;52.538;13.266;2022-10-10T03:23:11;8.10;99.90
17687;DHT22;8962;52.538;13.266;2022-10-10T03:25:40;8.10;99.90
17687;DHT22;8962;52.538;13.266;2022-10-10T03:28:07;8.10;99.90
17687;DHT22;8962;52.538;13.266;2022-10-10T03:30:36;8.10;99.90
17687;DHT22;8962;52.538;13.266;2022-10-10T03:33:04;8.00;99.90
17687;DHT22;8962;52.538;13.266;2022-10-10T03:35:33;8.00;99.90
17687;DHT22;8962;52.538;13.266;2022-10-10T03:38:03;8.00;99.90
17687;DHT22;8962;52.538;13.266;2022-10-10T03:40:30;8.00;99.90
17687;DHT22;8962;52.538;13.266;2022-10-10T03:42:58;8.00;99.90
17687;DHT22;8962;52.538;13.266;2022-10-10T03:45:25;8.00;99.90
17687;DHT22;8962;52.538;13.266;2022-10-10T03:47:52;8.00;99.90
17687;DHT22;8962;52.538;13.266;2022-10-10T03:50:19;8.00;99.90
17687;DHT22;8962;52.538;13.266;2022-10-10T03:52:46;8.00;99.90
17687;DHT22;8962;52.538;13.266;2022-10-10T03:55:15;8.00;99.90
17687;DHT22;8962;52.538;13.266;2022-10-10T03:57:42;7.90;99.90
17687;DHT22;8962;52.538;13.266;2022-10-10T04:00:12;7.90;99.90
17687;DHT22;8962;52.538;13.266;2022-10-10T04:02:40;7.90;99.90
17687;DHT22;8962;52.538;13.266;2022-10-10T04:05:08;7.90;99.90
17687;DHT22;8962;52.538;13.266;2022-10-10T04:07:35;7.90;99.90
17687;DHT22;8962;52.538;13.266;2022-10-10T04:10:03;7.80;99.90
17687;DHT22;8962;52.538;13.266;2022-10-10T04:12:32;7.80;99.90
17687;DHT22;8962;52.538;13.266;2022-10-10T04:14:59;7.80;99.90
17687;DHT22;8962;52.538;13.266;2022-10-10T04:17:25;7.80;99.90
17687;DHT22;8962;52.538;13.266;2022-10-10T04:19:52;7.80;99.90
17687;DHT22;8962;52.538;13.266;2022-10-10T04:22:19;7.80;99.90
17687;DHT22;8962;52.538;13.266;2022-10-10T04:24:47;7.80;99.90
17687;DHT22;8962;52.538;13.266;2022-10-10T04:27:15;7.80;99.90
17687;DHT22;8962;52.538;13.266;2022-10-10T04:29:50;7.80;99.90
17687;DHT22;8962;52.538;13.266;2022-10-10T04:32:18;7.80;99.90
17687;DHT22;8962;52.538;13.266;2022-10-10T04:34:45;7.80;99.90
17687;DHT22;8962;52.538;13.266;2022-10-10T04:37:12;7.80;99.90
17687;DHT22;8962;52.538;13.266;2022-10-10T04:39:39;7.80;99.90
17687;DHT22;8962;52.538;13.266;2022-10-10T04:42:07;7.80;99.90
17687;DHT22;8962;52.538;13.266;2022-10-10T04:44:34;7.80;99.90
17687;DHT22;8962;52.538;13.266;2022-10-10T04:47:03;7.80;99.90
17687;DHT22;8962;52.538;13.266;2022-10-10T04:49:31;7.80;99.90
17687;DHT22;8962;52.538;13.266;2022-10-10T04:51:58;7.80;99.90
17687;DHT22;8962;52.538;13.266;2022-10-10T04:54:25;7.90;99.90
17687;DHT22;8962;52.538;13.266;2022-10-10T04:56:53;7.90;99.90
17687;DHT22;8962;52.538;13.266;2022-10-10T04:59:20;7.90;99.90
17687;DHT22;8962;52.538;13.266;2022-10-10T05:01:47;7.90;99.90
17687;DHT22;8962;52.538;13.266;2022-10-10T05:04:15;7.90;99.90
17687;DHT22;8962;52.538;13.266;2022-10-10T05:06:43;7.90;99.90
17687;DHT22;8962;52.538;13.266;2022-10-10T05:09:10;7.90;99.90
17687;DHT22;8962;52.538;13.266;2022-10-10T05:11:37;7.90;99.90
17687;DHT22;8962;52.538;13.266;2022-10-10T05:14:05;7.80;99.90
17687;DHT22;8962;52.538;13.266;2022-10-10T05:16:32;7.80;99.90
17687;DHT22;8962;52.538;13.266;2022-10-10T05:18:59;7.80;99.90
17687;DHT22;8962;52.538;13.266;2022-10-10T05:21:28;7.80;99.90
17687;DHT22;8962;52.538;13.266;2022-10-10T05:23:56;7.80;99.90
17687;DHT22;8962;52.538;13.266;2022-10-10T05:26:24;7.80;99.90
17687;DHT22;8962;52.538;13.266;2022-10-10T05:28:51;7.80;99.90
17687;DHT22;8962;52.538;13.266;2022-10-10T05:31:19;7.80;99.90
17687;DHT22;8962;52.538;13.266;2022-10-10T05:33:46;7.80;99.90
17687;DHT22;8962;52.538;13.266;2022-10-10T05:36:13;7.80;99.90
17687;DHT22;8962;52.538;13.266;2022-10-10T05:38:41;7.80;99.90
17687;DHT22;8962;52.538;13.266;2022-10-10T05:41:09;7.90;99.90
17687;DHT22;8962;52.538;13.266;2022-10-10T05:43:37;7.90;99.90
17687;DHT22;8962;52.538;13.266;2022-10-10T05:46:05;7.90;99.90
17687;DHT22;8962;52.538;13.266;2022-10-10T05:48:32;7.90;99.90
17687;DHT22;8962;52.538;13.266;2022-10-10T05:50:59;7.90;99.90
17687;DHT22;8962;52.538;13.266;2022-10-10T05:53:28;7.80;99.90
17687;DHT22;8962;52.538;13.266;2022-10-10T05:55:59;7.90;99.90
17687;DHT22;8962;52.538;13.266;2022-10-10T05:58:28;7.90;99.90
17687;DHT22;8962;52.538;13.266;2022-10-10T06:01:01;7.90;99.90
17687;DHT22;8962;52.538;13.266;2022-10-10T06:03:29;7.90;99.90
17687;DHT22;8962;52.538;13.266;2022-10-10T06:05:57;8.00;99.90
17687;DHT22;8962;52.538;13.266;2022-10-10T06:08:25;8.00;99.90
17687;DHT22;8962;52.538;13.266;2022-10-10T06:10:52;8.00;99.90
17687;DHT22;8962;52.538;13.266;2022-10-10T06:13:37;8.10;99.90
17687;DHT22;8962;52.538;13.266;2022-10-10T06:16:05;8.70;99.90
17687;DHT22;8962;52.538;13.266;2022-10-10T06:18:34;8.70;99.90
17687;DHT22;8962;52.538;13.266;2022-10-10T06:21:06;8.80;99.90
17687;DHT22;8962;52.538;13.266;2022-10-10T06:23:33;8.80;99.90
17687;DHT22;8962;52.538;13.266;2022-10-10T06:26:02;8.90;99.90
17687;DHT22;8962;52.538;13.266;2022-10-10T06:28:29;8.90;99.90
17687;DHT22;8962;52.538;13.266;2022-10-10T06:31:00;8.90;99.90
17687;DHT22;8962;52.538;13.266;2022-10-10T06:33:27;8.80;99.90
17687;DHT22;8962;52.538;13.266;2022-10-10T06:35:54;8.80;99.90
17687;DHT22;8962;52.538;13.266;2022-10-10T06:38:22;8.80;99.90
17687;DHT22;8962;52.538;13.266;2022-10-10T06:40:49;8.80;99.90
17687;DHT22;8962;52.538;13.266;2022-10-10T06:43:17;8.80;99.90
17687;DHT22;8962;52.538;13.266;2022-10-10T06:45:50;8.90;99.90
17687;DHT22;8962;52.538;13.266;2022-10-10T06:48:18;9.00;99.90
17687;DHT22;8962;52.538;13.266;2022-10-10T06:50:56;9.00;99.90
17687;DHT22;8962;52.538;13.266;2022-10-10T06:53:23;9.00;99.90
17687;DHT22;8962;52.538;13.266;2022-10-10T06:55:52;9.10;99.90
17687;DHT22;8962;52.538;13.266;2022-10-10T06:58:21;9.10;99.90
17687;DHT22;8962;52.538;13.266;2022-10-10T07:00:50;9.10;99.90
17687;DHT22;8962;52.538;13.266;2022-10-10T07:03:19;9.30;99.90
17687;DHT22;8962;52.538;13.266;2022-10-10T07:05:50;9.40;99.90
17687;DHT22;8962;52.538;13.266;2022-10-10T07:08:19;9.40;99.90
17687;DHT22;8962;52.538;13.266;2022-10-10T07:10:47;9.40;99.90
17687;DHT22;8962;52.538;13.266;2022-10-10T07:13:14;9.40;99.90
17687;DHT22;8962;52.538;13.266;2022-10-10T07:15:42;9.40;99.90
17687;DHT22;8962;52.538;13.266;2022-10-10T07:18:11;9.50;99.90
17687;DHT22;8962;52.538;13.266;2022-10-10T07:20:42;9.50;99.90
17687;DHT22;8962;52.538;13.266;2022-10-10T07:23:10;9.60;99.90
17687;DHT22;8962;52.538;13.266;2022-10-10T07:25:38;9.70;99.90
17687;DHT22;8962;52.538;13.266;2022-10-10T07:28:05;9.80;99.90
17687;DHT22;8962;52.538;13.266;2022-10-10T07:30:38;9.80;99.90
17687;DHT22;8962;52.538;13.266;2022-10-10T07:33:07;9.80;99.90
17687;DHT22;8962;52.538;13.266;2022-10-10T07:35:39;9.90;99.90
17687;DHT22;8962;52.538;13.266;2022-10-10T07:38:12;9.90;99.90
17687;DHT22;8962;52.538;13.266;2022-10-10T07:40:39;9.80;99.90
17687;DHT22;8962;52.538;13.266;2022-10-10T07:43:09;10.10;99.90
17687;DHT22;8962;52.538;13.266;2022-10-10T07:45:37;10.30;99.90
17687;DHT22;8962;52.538;13.266;2022-10-10T07:48:05;10.40;99.90
17687;DHT22;8962;52.538;13.266;2022-10-10T07:50:32;10.50;99.90
17687;DHT22;8962;52.538;13.266;2022-10-10T07:53:02;10.60;99.90
17687;DHT22;8962;52.538;13.266;2022-10-10T07:55:33;10.70;99.90
17687;DHT22;8962;52.538;13.266;2022-10-10T07:58:02;10.70;99.90
17687;DHT22;8962;52.538;13.266;2022-10-10T08:00:29;10.70;99.90
17687;DHT22;8962;52.538;13.266;2022-10-10T08:02:57;10.70;99.90
17687;DHT22;8962;52.538;13.266;2022-10-10T08:05:24;10.70;99.90
17687;DHT22;8962;52.538;13.266;2022-10-10T08:07:51;10.70;99.90
17687;DHT22;8962;52.538;13.266;2022-10-10T08:10:19;10.80;99.90
17687;DHT22;8962;52.538;13.266;2022-10-10T08:12:48;10.90;99.90
17687;DHT22;8962;52.538;13.266;2022-10-10T08:15:16;11.10;99.90
17687;DHT22;8962;52.538;13.266;2022-10-10T08:17:45;11.10;99.90
17687;DHT22;8962;52.538;13.266;2022-10-10T08:20:12;11.10;99.90
17687;DHT22;8962;52.538;13.266;2022-10-10T08:22:41;11.20;99.90
17687;DHT22;8962;52.538;13.266;2022-10-10T08:25:08;11.20;99.90
17687;DHT22;8962;52.538;13.266;2022-10-10T08:27:36;11.30;99.90
17687;DHT22;8962;52.538;13.266;2022-10-10T08:30:08;11.30;99.90
17687;DHT22;8962;52.538;13.266;2022-10-10T08:32:35;11.50;99.90
17687;DHT22;8962;52.538;13.266;2022-10-10T08:35:03;11.70;99.90
17687;DHT22;8962;52.538;13.266;2022-10-10T08:37:31;11.80;99.90
17687;DHT22;8962;52.538;13.266;2022-10-10T08:39:58;11.80;99.90
17687;DHT22;8962;52.538;13.266;2022-10-10T08:42:32;11.90;99.90
17687;DHT22;8962;52.538;13.266;2022-10-10T08:45:02;12.00;99.90
17687;DHT22;8962;52.538;13.266;2022-10-10T08:47:37;12.30;99.90
17687;DHT22;8962;52.538;13.266;2022-10-10T08:50:13;12.30;99.90
17687;DHT22;8962;52.538;13.266;2022-10-10T08:52:45;12.30;99.90
17687;DHT22;8962;52.538;13.266;2022-10-10T08:55:18;12.40;99.90
17687;DHT22;8962;52.538;13.266;2022-10-10T08:57:50;12.50;99.90
17687;DHT22;8962;52.538;13.266;2022-10-10T09:00:22;12.60;99.90
17687;DHT22;8962;52.538;13.266;2022-10-10T09:02:53;12.80;99.90
17687;DHT22;8962;52.538;13.266;2022-10-10T09:05:34;12.80;99.90
17687;DHT22;8962;52.538;13.266;2022-10-10T09:08:28;13.00;99.90
17687;DHT22;8962;52.538;13.266;2022-10-10T09:11:09;13.20;99.90
17687;DHT22;8962;52.538;13.266;2022-10-10T09:13:41;13.50;99.90
17687;DHT22;8962;52.538;13.266;2022-10-10T09:16:19;13.60;99.90
17687;DHT22;8962;52.538;13.266;2022-10-10T09:19:00;13.90;99.90
17687;DHT22;8962;52.538;13.266;2022-10-10T09:21:35;14.10;99.90
17687;DHT22;8962;52.538;13.266;2022-10-10T09:24:09;14.50;99.90
17687;DHT22;8962;52.538;13.266;2022-10-10T09:26:40;14.70;99.90
17687;DHT22;8962;52.538;13.266;2022-10-10T09:29:25;14.80;99.90
17687;DHT22;8962;52.538;13.266;2022-10-10T09:31:56;14.90;99.90
17687;DHT22;8962;52.538;13.266;2022-10-10T09:34:31;15.00;99.90
17687;DHT22;8962;52.538;13.266;2022-10-10T09:37:00;15.20;99.90
17687;DHT22;8962;52.538;13.266;2022-10-10T09:39:36;15.10;99.90
17687;DHT22;8962;52.538;13.266;2022-10-10T09:42:10;15.10;99.90
17687;DHT22;8962;52.538;13.266;2022-10-10T09:44:38;15.40;99.90
17687;DHT22;8962;52.538;13.266;2022-10-10T09:47:07;15.40;99.90
17687;DHT22;8962;52.538;13.266;2022-10-10T09:49:37;15.30;99.90
17687;DHT22;8962;52.538;13.266;2022-10-10T09:52:20;15.40;99.90
17687;DHT22;8962;52.538;13.266;2022-10-10T09:54:53;15.40;99.90
17687;DHT22;8962;52.538;13.266;2022-10-10T09:57:25;15.30;99.90
17687;DHT22;8962;52.538;13.266;2022-10-10T09:59:55;15.20;99.90
17687;DHT22;8962;52.538;13.266;2022-10-10T10:02:26;15.00;99.90
17687;DHT22;8962;52.538;13.266;2022-10-10T10:04:55;14.90;99.90
17687;DHT22;8962;52.538;13.266;2022-10-10T10:07:26;14.70;99.90
17687;DHT22;8962;52.538;13.266;2022-10-10T10:09:55;14.60;99.90
17687;DHT22;8962;52.538;13.266;2022-10-10T10:12:26;14.50;99.90
17687;DHT22;8962;52.538;13.266;2022-10-10T10:14:58;14.50;99.90
17687;DHT22;8962;52.538;13.266;2022-10-10T10:17:26;14.50;99.90
17687;DHT22;8962;52.538;13.266;2022-10-10T10:19:58;14.50;99.90
17687;DHT22;8962;52.538;13.266;2022-10-10T10:22:30;14.40;99.90
17687;DHT22;8962;52.538;13.266;2022-10-10T10:28:17;14.60;99.90
17687;DHT22;8962;52.538;13.266;2022-10-10T10:30:45;14.80;99.90
17687;DHT22;8962;52.538;13.266;2022-10-10T10:33:18;14.90;99.90
17687;DHT22;8962;52.538;13.266;2022-10-10T10:35:57;15.10;99.90
17687;DHT22;8962;52.538;13.266;2022-10-10T10:38:36;15.20;99.90
17687;DHT22;8962;52.538;13.266;2022-10-10T10:41:13;15.30;99.90
17687;DHT22;8962;52.538;13.266;2022-10-10T10:43:57;15.50;99.90
17687;DHT22;8962;52.538;13.266;2022-10-10T10:46:42;15.50;99.90
17687;DHT22;8962;52.538;13.266;2022-10-10T10:49:15;15.60;99.90
17687;DHT22;8962;52.538;13.266;2022-10-10T10:52:06;15.50;99.90
17687;DHT22;8962;52.538;13.266;2022-10-10T10:55:03;15.60;99.90
17687;DHT22;8962;52.538;13.266;2022-10-10T10:57:48;15.50;99.90
17687;DHT22;8962;52.538;13.266;2022-10-10T11:00:19;15.60;99.90
17687;DHT22;8962;52.538;13.266;2022-10-10T11:02:59;15.90;99.90
17687;DHT22;8962;52.538;13.266;2022-10-10T11:05:34;16.30;99.90
17687;DHT22;8962;52.538;13.266;2022-10-10T11:08:22;17.60;99.90
17687;DHT22;8962;52.538;13.266;2022-10-10T11:10:59;18.80;99.90
17687;DHT22;8962;52.538;13.266;2022-10-10T11:13:36;19.60;99.90
17687;DHT22;8962;52.538;13.266;2022-10-10T11:16:12;20.20;99.90
17687;DHT22;8962;52.538;13.266;2022-10-10T11:18:47;21.20;99.90
17687;DHT22;8962;52.538;13.266;2022-10-10T11:21:19;22.10;99.90
17687;DHT22;8962;52.538;13.266;2022-10-10T11:23:54;22.40;99.90
17687;DHT22;8962;52.538;13.266;2022-10-10T11:26:24;22.50;99.90
17687;DHT22;8962;52.538;13.266;2022-10-10T11:28:56;22.20;99.90
17687;DHT22;8962;52.538;13.266;2022-10-10T11:31:27;22.70;99.90
17687;DHT22;8962;52.538;13.266;2022-10-10T11:33:58;22.80;99.90
17687;DHT22;8962;52.538;13.266;2022-10-10T11:36:28;22.90;99.90
17687;DHT22;8962;52.538;13.266;2022-10-10T11:39:04;23.60;99.90
17687;DHT22;8962;52.538;13.266;2022-10-10T11:41:38;23.60;99.90
17687;DHT22;8962;52.538;13.266;2022-10-10T11:44:11;24.00;99.90
17687;DHT22;8962;52.538;13.266;2022-10-10T11:46:44;24.60;99.90
17687;DHT22;8962;52.538;13.266;2022-10-10T11:49:16;24.70;99.80
17687;DHT22;8962;52.538;13.266;2022-10-10T11:52:02;25.00;98.20
17687;DHT22;8962;52.538;13.266;2022-10-10T11:54:41;23.80;99.10
17687;DHT22;8962;52.538;13.266;2022-10-10T11:57:15;23.90;99.00
17687;DHT22;8962;52.538;13.266;2022-10-10T11:59:46;24.20;98.70
17687;DHT22;8962;52.538;13.266;2022-10-10T12:02:20;24.60;98.00
17687;DHT22;8962;52.538;13.266;2022-10-10T12:04:49;24.20;97.90
17687;DHT22;8962;52.538;13.266;2022-10-10T12:07:20;24.40;97.70
17687;DHT22;8962;52.538;13.266;2022-10-10T12:09:54;24.60;97.20
17687;DHT22;8962;52.538;13.266;2022-10-10T12:12:24;24.60;97.10
17687;DHT22;8962;52.538;13.266;2022-10-10T12:14:53;25.50;96.00
17687;DHT22;8962;52.538;13.266;2022-10-10T12:17:26;26.00;93.80
17687;DHT22;8962;52.538;13.266;2022-10-10T12:19:55;25.40;94.20
17687;DHT22;8962;52.538;13.266;2022-10-10T12:22:24;25.40;94.20
17687;DHT22;8962;52.538;13.266;2022-10-10T12:25:21;25.40;94.10
17687;DHT22;8962;52.538;13.266;2022-10-10T12:28:04;25.30;93.80
17687;DHT22;8962;52.538;13.266;2022-10-10T12:30:32;25.40;93.20
17687;DHT22;8962;52.538;13.266;2022-10-10T12:32:59;26.20;92.30
17687;DHT22;8962;52.538;13.266;2022-10-10T12:35:33;25.70;92.00
17687;DHT22;8962;52.538;13.266;2022-10-10T12:38:19;26.00;91.70
17687;DHT22;8962;52.538;13.266;2022-10-10T12:41:18;26.30;91.40
17687;DHT22;8962;52.538;13.266;2022-10-10T12:43:49;26.70;90.60
17687;DHT22;8962;52.538;13.266;2022-10-10T12:46:23;26.70;90.30
17687;DHT22;8962;52.538;13.266;2022-10-10T12:49:03;27.30;87.10
17687;DHT22;8962;52.538;13.266;2022-10-10T12:51:33;27.00;86.80
17687;DHT22;8962;52.538;13.266;2022-10-10T12:54:03;26.90;86.70
17687;DHT22;8962;52.538;13.266;2022-10-10T12:56:37;27.10;85.80
17687;DHT22;8962;52.538;13.266;2022-10-10T12:59:12;27.70;84.70
17687;DHT22;8962;52.538;13.266;2022-10-10T13:01:44;27.70;83.30
17687;DHT22;8962;52.538;13.266;2022-10-10T13:04:15;27.90;82.00
17687;DHT22;8962;52.538;13.266;2022-10-10T13:06:43;27.90;81.40
17687;DHT22;8962;52.538;13.266;2022-10-10T13:09:16;29.00;78.40
17687;DHT22;8962;52.538;13.266;2022-10-10T13:11:57;28.60;76.90
17687;DHT22;8962;52.538;13.266;2022-10-10T13:14:25;27.40;79.30
17687;DHT22;8962;52.538;13.266;2022-10-10T13:16:53;27.80;79.10
17687;DHT22;8962;52.538;13.266;2022-10-10T13:19:22;28.80;77.40
17687;DHT22;8962;52.538;13.266;2022-10-10T13:21:51;29.30;74.80
17687;DHT22;8962;52.538;13.266;2022-10-10T13:24:21;28.60;75.30
17687;DHT22;8962;52.538;13.266;2022-10-10T13:26:51;29.40;73.40
17687;DHT22;8962;52.538;13.266;2022-10-10T13:29:26;29.30;72.60
17687;DHT22;8962;52.538;13.266;2022-10-10T13:31:58;29.30;72.80
17687;DHT22;8962;52.538;13.266;2022-10-10T13:34:27;29.40;72.20
17687;DHT22;8962;52.538;13.266;2022-10-10T13:36:58;29.30;72.00
17687;DHT22;8962;52.538;13.266;2022-10-10T13:39:29;28.80;72.70
17687;DHT22;8962;52.538;13.266;2022-10-10T13:41:57;26.30;78.90
17687;DHT22;8962;52.538;13.266;2022-10-10T13:44:31;24.60;85.00
17687;DHT22;8962;52.538;13.266;2022-10-10T13:47:23;23.20;90.60
17687;DHT22;8962;52.538;13.266;2022-10-10T13:49:53;22.70;92.90
17687;DHT22;8962;52.538;13.266;2022-10-10T13:52:21;23.40;92.70
17687;DHT22;8962;52.538;13.266;2022-10-10T13:54:49;23.30;93.30
17687;DHT22;8962;52.538;13.266;2022-10-10T13:57:18;22.60;94.50
17687;DHT22;8962;52.538;13.266;2022-10-10T13:59:50;22.30;95.60
17687;DHT22;8962;52.538;13.266;2022-10-10T14:02:30;21.40;97.70
17687;DHT22;8962;52.538;13.266;2022-10-10T14:04:58;21.20;99.30
17687;DHT22;8962;52.538;13.266;2022-10-10T14:07:31;20.70;99.90
17687;DHT22;8962;52.538;13.266;2022-10-10T14:09:59;20.20;99.90
17687;DHT22;8962;52.538;13.266;2022-10-10T14:12:29;19.70;99.90
17687;DHT22;8962;52.538;13.266;2022-10-10T14:15:03;19.40;99.90
17687;DHT22;8962;52.538;13.266;2022-10-10T14:17:30;19.50;99.90
17687;DHT22;8962;52.538;13.266;2022-10-10T14:19:57;19.30;99.90
17687;DHT22;8962;52.538;13.266;2022-10-10T14:22:25;18.90;99.90
17687;DHT22;8962;52.538;13.266;2022-10-10T14:24:52;18.70;99.90
17687;DHT22;8962;52.538;13.266;2022-10-10T14:27:23;18.70;99.90
17687;DHT22;8962;52.538;13.266;2022-10-10T14:29:53;18.60;99.90
17687;DHT22;8962;52.538;13.266;2022-10-10T14:32:22;18.50;99.90
17687;DHT22;8962;52.538;13.266;2022-10-10T14:34:50;18.30;99.90
17687;DHT22;8962;52.538;13.266;2022-10-10T14:37:19;18.20;99.90
17687;DHT22;8962;52.538;13.266;2022-10-10T14:39:46;18.00;99.90
17687;DHT22;8962;52.538;13.266;2022-10-10T14:42:14;17.90;99.90
17687;DHT22;8962;52.538;13.266;2022-10-10T14:44:42;17.70;99.90
17687;DHT22;8962;52.538;13.266;2022-10-10T14:47:14;17.60;99.90
17687;DHT22;8962;52.538;13.266;2022-10-10T14:49:43;17.60;99.90
17687;DHT22;8962;52.538;13.266;2022-10-10T14:52:10;17.50;99.90
17687;DHT22;8962;52.538;13.266;2022-10-10T14:54:38;17.50;99.90
17687;DHT22;8962;52.538;13.266;2022-10-10T14:57:05;17.50;99.90
17687;DHT22;8962;52.538;13.266;2022-10-10T14:59:32;17.40;99.90
17687;DHT22;8962;52.538;13.266;2022-10-10T15:02:00;17.30;99.90
17687;DHT22;8962;52.538;13.266;2022-10-10T15:04:27;17.20;99.90
17687;DHT22;8962;52.538;13.266;2022-10-10T15:06:56;17.20;99.90
17687;DHT22;8962;52.538;13.266;2022-10-10T15:09:23;17.20;99.90
17687;DHT22;8962;52.538;13.266;2022-10-10T15:11:50;17.10;99.90
17687;DHT22;8962;52.538;13.266;2022-10-10T15:14:17;17.10;99.90
17687;DHT22;8962;52.538;13.266;2022-10-10T15:16:45;17.00;99.90
17687;DHT22;8962;52.538;13.266;2022-10-10T15:19:12;16.90;99.90
17687;DHT22;8962;52.538;13.266;2022-10-10T15:21:39;16.90;99.90
17687;DHT22;8962;52.538;13.266;2022-10-10T15:24:08;16.90;99.90
17687;DHT22;8962;52.538;13.266;2022-10-10T15:26:35;16.80;99.90
17687;DHT22;8962;52.538;13.266;2022-10-10T15:29:02;16.80;99.90
17687;DHT22;8962;52.538;13.266;2022-10-10T15:31:30;16.80;99.90
17687;DHT22;8962;52.538;13.266;2022-10-10T15:33:57;16.80;99.90
17687;DHT22;8962;52.538;13.266;2022-10-10T15:36:28;16.70;99.90
17687;DHT22;8962;52.538;13.266;2022-10-10T15:38:56;16.70;99.90
17687;DHT22;8962;52.538;13.266;2022-10-10T15:41:24;16.70;99.90
17687;DHT22;8962;52.538;13.266;2022-10-10T15:43:53;16.60;99.90
17687;DHT22;8962;52.538;13.266;2022-10-10T15:46:21;16.60;99.90
17687;DHT22;8962;52.538;13.266;2022-10-10T15:48:48;16.50;99.90
17687;DHT22;8962;52.538;13.266;2022-10-10T15:51:15;16.40;99.90
17687;DHT22;8962;52.538;13.266;2022-10-10T15:53:42;16.30;99.90
17687;DHT22;8962;52.538;13.266;2022-10-10T15:56:13;16.30;99.90
17687;DHT22;8962;52.538;13.266;2022-10-10T15:58:43;16.20;99.90
17687;DHT22;8962;52.538;13.266;2022-10-10T16:01:11;16.10;99.90
17687;DHT22;8962;52.538;13.266;2022-10-10T16:03:39;16.10;99.90